Terminal Aerodrome Forecast
Issued by NWS

Home | Current Version | Previous Version | Text Only | Print | Product List | Glossary On
Versions: 1 2 3 4 5 6 7 8 9 10 11 12 13 14 15 16
000
FTPQ31 PGUM 282206 AAL
TAFKWA
TAF AMD
PKWA 282206Z 2822/2918 15010KT P6SM VCSH SCT019 SCT035
     FM290700 15010KT P6SM VCSH SCT017 SCT025 BKN120=

USA.gov is the U.S. government's official web portal to all federal, state and local government web resources and services.